Time;durP1;ratioP1;P1;durP2;ratioP2;P2;SDS_P1;SDS_P2;PMS_P1;PMS_P2;Temp;Humidity;BMP_temperature;BMP_pressure;BME280_temperature;BME280_humidity;BME280_pressure;Samples;Min_cycle;Max_cycle;Signal;HPM_P1;HPM_P2
2022/08/14 00:01:47;;;;;;;25.48;15.95;;;;;;;17.00;100.00;94454.69;5025052;28;20075;-72
2022/08/14 00:04:22;;;;;;;;;;;;;;;17.02;100.00;94461.53;5004791;28;20065;-72
2022/08/14 00:07:08;;;;;;;24.83;14.05;;;;;;;16.98;100.00;94456.03;4992705;28;19960;-73
2022/08/14 00:09:36;;;;;;;19.52;13.60;;;;;;;16.99;100.00;94458.38;5025808;28;20042;-72
2022/08/14 00:12:24;;;;;;;21.17;14.07;;;;;;;17.03;100.00;94455.19;5024745;28;20050;-73
2022/08/14 00:15:15;;;;;;;22.88;15.63;;;;;;;17.03;100.00;94449.91;5004133;28;20529;-72
2022/08/14 00:17:44;;;;;;;22.08;14.43;;;;;;;17.05;100.00;94445.16;5019248;28;20119;-73
2022/08/14 00:20:23;;;;;;;21.60;14.27;;;;;;;17.03;100.00;94434.13;4999153;28;20052;-73
2022/08/14 00:22:58;;;;;;;21.98;14.63;;;;;;;17.00;100.00;94430.22;5021302;28;20438;-74
2022/08/14 00:25:39;;;;;;;26.85;15.05;;;;;;;16.85;100.00;94423.28;5005113;28;20241;-73
2022/08/14 00:28:10;;;;;;;25.27;13.48;;;;;;;16.87;100.00;94436.16;5004192;28;20117;-72
2022/08/14 00:30:45;;;;;;;27.40;13.52;;;;;;;16.90;100.00;94430.34;5008898;28;20454;-72
2022/08/14 00:33:13;;;;;;;33.30;14.93;;;;;;;16.89;100.00;94424.31;5023222;28;20537;-72
2022/08/14 00:35:43;;;;;;;22.15;14.88;;;;;;;16.84;100.00;94411.19;5022983;28;20049;-72
2022/08/14 00:38:30;;;;;;;20.80;14.45;;;;;;;16.87;100.00;94421.16;5008467;28;20455;-72
2022/08/14 00:41:01;;;;;;;23.40;14.77;;;;;;;16.87;100.00;94413.28;5005596;28;20045;-73
2022/08/14 00:43:28;;;;;;;18.25;13.55;;;;;;;16.81;100.00;94407.25;5007968;28;20048;-72
2022/08/14 00:46:05;;;;;;;25.15;14.43;;;;;;;16.89;100.00;94419.03;5005169;28;20188;-73
2022/08/14 00:48:49;;;;;;;25.13;13.23;;;;;;;16.72;100.00;94413.41;5023492;28;20046;-72
2022/08/14 00:51:17;;;;;;;25.50;14.32;;;;;;;16.67;100.00;94421.34;5011042;28;20103;-73
2022/08/14 00:53:44;;;;;;;31.15;17.23;;;;;;;16.66;100.00;94419.78;5005045;28;20044;-71
2022/08/14 00:56:12;;;;;;;26.20;16.20;;;;;;;16.67;100.00;94416.06;5006921;28;20049;-73
2022/08/14 00:58:41;;;;;;;26.02;16.30;;;;;;;16.70;100.00;94405.78;5005468;28;20053;-73
2022/08/14 01:01:17;;;;;;;33.47;16.73;;;;;;;16.85;100.00;94418.00;5024211;28;20052;-73
2022/08/14 01:03:45;;;;;;;29.10;15.73;;;;;;;16.82;100.00;94397.53;5022448;28;20041;-73
2022/08/14 01:06:20;;;;;;;25.77;15.80;;;;;;;16.93;100.00;94414.78;5003300;28;20033;-73
2022/08/14 01:08:49;;;;;;;23.42;14.65;;;;;;;16.97;100.00;94405.25;5020095;28;20042;-73
2022/08/14 01:11:23;;;;;;;24.80;16.02;;;;;;;17.03;100.00;94407.81;5023590;28;20053;-73
2022/08/14 01:13:51;;;;;;;23.10;14.73;;;;;;;16.99;100.00;94397.84;5023195;28;20049;-72
2022/08/14 01:16:29;;;;;;;21.85;15.20;;;;;;;16.96;100.00;94397.63;5007170;28;20056;-72
2022/08/14 01:21:46;;;;;;;24.05;16.05;;;;;;;17.05;100.00;94406.50;5002608;28;20041;-74
2022/08/14 01:24:20;;;;;;;26.52;15.93;;;;;;;17.00;100.00;94388.13;5005965;28;20502;-72
2022/08/14 01:26:58;;;;;;;28.52;16.35;;;;;;;16.98;100.00;94391.03;5025528;28;20550;-72
2022/08/14 01:29:29;;;;;;;31.88;16.15;;;;;;;17.05;100.00;94393.34;5010485;28;20045;-73
2022/08/14 01:32:17;;;;;;;29.13;16.23;;;;;;;17.04;100.00;94388.34;5022620;28;20037;-73
2022/08/14 01:34:54;;;;;;;25.02;15.85;;;;;;;16.97;100.00;94384.22;5007416;28;20053;-73
2022/08/14 01:37:45;;;;;;;25.70;15.75;;;;;;;17.03;100.00;94381.53;5027001;28;20751;-73
2022/08/14 01:40:23;;;;;;;27.48;17.13;;;;;;;17.09;100.00;94380.41;5023734;28;20047;-73
2022/08/14 01:42:59;;;;;;;28.40;16.13;;;;;;;17.11;100.00;94373.00;5008140;28;20045;-73
2022/08/14 01:45:28;;;;;;;27.30;15.60;;;;;;;17.14;100.00;94382.94;4992828;28;20045;-72
2022/08/14 01:48:07;;;;;;;25.25;15.52;;;;;;;17.10;100.00;94382.72;5010321;28;20049;-73
2022/08/14 01:50:41;;;;;;;20.53;14.77;;;;;;;17.11;100.00;94379.03;5026294;28;20064;-73
2022/08/14 01:53:10;;;;;;;23.40;16.13;;;;;;;17.08;100.00;94370.94;5023739;28;20041;-73
2022/08/14 01:55:38;;;;;;;27.65;15.85;;;;;;;17.14;100.00;94382.94;5008910;28;20046;-72
2022/08/14 01:58:11;;;;;;;24.52;15.90;;;;;;;17.15;100.00;94379.25;5027585;28;20517;-73
2022/08/14 02:00:53;;;;;;;28.00;16.13;;;;;;;17.10;100.00;94360.91;5005547;28;20053;-73
2022/08/14 02:03:29;;;;;;;27.00;16.30;;;;;;;17.01;100.00;94363.38;5025551;28;20057;-76
2022/08/14 02:06:01;;;;;;;23.33;15.68;;;;;;;17.10;100.00;94376.69;5026735;28;20041;-73
2022/08/14 02:08:48;;;;;;;28.50;16.83;;;;;;;17.11;100.00;94378.28;5009434;28;20041;-73
2022/08/14 02:11:22;;;;;;;21.52;15.13;;;;;;;17.13;100.00;94378.78;5023360;28;20041;-73
2022/08/14 02:14:00;;;;;;;26.63;16.10;;;;;;;17.16;100.00;94380.81;5025758;28;20060;-71
2022/08/14 02:16:54;;;;;;;25.60;15.27;;;;;;;17.16;100.00;94388.72;5008126;28;20160;-73
2022/08/14 02:19:26;;;;;;;21.65;13.18;;;;;;;17.17;100.00;94377.13;5020609;28;20048;-74
2022/08/14 02:21:58;;;;;;;26.30;14.95;;;;;;;17.16;100.00;94370.28;5004451;28;20053;-73
2022/08/14 02:24:30;;;;;;;20.15;13.95;;;;;;;17.12;100.00;94371.94;5015144;28;20430;-75
2022/08/14 02:27:07;;;;;;;23.48;13.63;;;;;;;17.17;100.00;94361.34;4995127;28;20561;-73
2022/08/14 02:29:55;;;;;;;21.30;15.02;;;;;;;17.18;100.00;94357.66;5005708;28;20038;-73
2022/08/14 02:32:33;;;;;;;24.83;14.65;;;;;;;17.14;100.00;94341.66;4989261;28;20067;-74
2022/08/14 02:35:17;;;;;;;23.95;14.05;;;;;;;17.15;100.00;94342.44;5003609;28;20049;-71
2022/08/14 02:37:46;;;;;;;20.83;14.20;;;;;;;17.15;100.00;94337.16;5006100;28;20412;-71
2022/08/14 02:40:17;;;;;;;25.77;15.43;;;;;;;17.13;100.00;94345.34;5026480;28;20041;-70
2022/08/14 02:42:46;;;;;;;20.40;14.65;;;;;;;17.04;100.00;94341.00;4967828;28;20127;-71
2022/08/14 02:45:31;;;;;;;22.73;15.70;;;;;;;17.00;100.00;94352.09;5004802;28;20494;-71
2022/08/14 02:48:13;;;;;;;23.52;15.27;;;;;;;16.92;100.00;94352.69;5005808;28;20037;-71
2022/08/14 02:51:06;;;;;;;27.77;15.25;;;;;;;16.83;100.00;94357.03;4999852;28;20033;-71
2022/08/14 02:53:35;;;;;;;;;;;;;;;16.81;100.00;94359.13;5005690;28;20075;-71
2022/08/14 02:56:03;;;;;;;25.30;15.50;;;;;;;16.76;100.00;94367.06;5023558;28;19928;-70
2022/08/14 02:58:50;;;;;;;25.85;15.90;;;;;;;16.76;100.00;94356.56;5006747;28;20095;-71
2022/08/14 03:01:22;;;;;;;32.92;17.17;;;;;;;16.79;100.00;94356.00;4998558;28;20409;-71
2022/08/14 03:03:58;;;;;;;27.65;16.77;;;;;;;16.73;100.00;94346.63;4980853;28;20059;-71
2022/08/14 03:06:25;;;;;;;28.42;16.80;;;;;;;16.75;100.00;94355.00;5002470;28;20527;-71
2022/08/14 03:09:12;;;;;;;31.42;15.95;;;;;;;16.57;100.00;94338.13;5000294;28;20467;-70
2022/08/14 03:11:41;;;;;;;31.17;17.02;;;;;;;16.60;100.00;94351.47;5021126;28;20129;-72
2022/08/14 03:14:11;;;;;;;32.60;18.48;;;;;;;16.60;100.00;94354.09;5018628;28;20049;-71
2022/08/14 03:16:41;;;;;;;27.55;18.20;;;;;;;16.61;100.00;94360.91;5017660;28;20427;-72
2022/08/14 03:19:08;;;;;;;33.10;19.38;;;;;;;16.48;100.00;94339.78;4992699;28;20038;-72
2022/08/14 03:21:38;;;;;;;36.17;19.58;;;;;;;16.55;100.00;94356.00;4978545;28;20062;-72
2022/08/14 03:24:09;;;;;;;28.52;18.75;;;;;;;16.54;100.00;94355.22;5007949;28;20041;-72
2022/08/14 03:26:48;;;;;;;33.00;17.65;;;;;;;16.61;100.00;94366.19;4992696;28;20134;-72
2022/08/14 03:29:23;;;;;;;35.63;19.17;;;;;;;16.59;100.00;94363.06;5005503;28;20545;-72
2022/08/14 03:31:52;;;;;;;32.58;18.63;;;;;;;16.67;100.00;94369.53;5004456;28;20046;-72
2022/08/14 03:34:22;;;;;;;39.20;19.38;;;;;;;16.67;100.00;94380.03;5019420;28;20049;-72
2022/08/14 03:37:11;;;;;;;38.25;20.48;;;;;;;16.62;100.00;94383.53;5016104;28;20037;-71
2022/08/14 03:39:58;;;;;;;30.92;19.08;;;;;;;16.49;100.00;94378.91;5003324;28;20526;-71
2022/08/14 03:42:26;;;;;;;32.40;19.73;;;;;;;16.54;100.00;94394.63;4983317;28;20056;-72
2022/08/14 03:45:05;;;;;;;34.95;19.98;;;;;;;16.49;100.00;94384.19;4980381;28;20451;-73
2022/08/14 03:47:52;;;;;;;34.28;18.15;;;;;;;16.44;100.00;94368.47;5021498;28;20065;-72
2022/08/14 03:50:25;;;;;;;32.70;17.83;;;;;;;16.48;100.00;94372.13;5005052;28;20065;-72
2022/08/14 03:53:00;;;;;;;32.65;19.38;;;;;;;16.58;100.00;94390.41;5006135;28;20140;-72
2022/08/14 03:55:27;;;;;;;31.55;19.27;;;;;;;16.52;100.00;94394.13;5003783;28;20527;-72
2022/08/14 03:57:57;;;;;;;39.05;20.05;;;;;;;16.47;100.00;94391.56;4986851;28;20535;-72
2022/08/14 04:00:28;;;;;;;35.20;19.98;;;;;;;16.42;100.00;94378.47;5003890;28;20298;-72
2022/08/14 04:03:11;;;;;;;32.55;19.75;;;;;;;16.55;100.00;94395.44;5009270;28;20045;-72
2022/08/14 04:05:46;;;;;;;28.65;19.13;;;;;;;16.66;100.00;94394.28;5025019;28;20080;-71
2022/08/14 04:08:16;;;;;;;33.15;19.45;;;;;;;16.69;100.00;94392.91;4989930;28;20081;-73
2022/08/14 04:10:58;;;;;;;31.42;19.85;;;;;;;16.78;100.00;94391.22;5008176;28;20582;-73
2022/08/14 04:13:29;;;;;;;35.83;20.38;;;;;;;16.86;100.00;94395.91;5028684;28;20057;-73
2022/08/14 04:16:04;;;;;;;37.58;19.52;;;;;;;16.84;100.00;94374.38;5026768;28;20452;-73
2022/08/14 04:18:40;;;;;;;35.85;20.35;;;;;;;16.92;100.00;94381.63;5003697;28;20393;-72
2022/08/14 04:21:09;;;;;;;44.70;20.65;;;;;;;16.93;100.00;94387.69;5026336;28;20154;-73
2022/08/14 04:23:37;;;;;;;36.17;19.67;;;;;;;16.94;100.00;94378.72;4995392;28;20040;-74
2022/08/14 04:26:08;;;;;;;34.75;20.00;;;;;;;17.06;100.00;94383.59;4996289;28;20090;-73
2022/08/14 04:28:53;;;;;;;29.60;19.20;;;;;;;17.04;100.00;94367.31;4993244;28;20140;-74
2022/08/14 04:31:39;;;;;;;34.10;19.60;;;;;;;17.15;100.00;94384.53;5023928;28;20116;-74
2022/08/14 04:34:26;;;;;;;36.38;19.83;;;;;;;17.18;100.00;94394.50;5024902;28;20060;-73
2022/08/14 04:45:24;;;;;;;41.92;20.70;;;;;;;17.12;100.00;94390.34;5007960;28;20493;-74
2022/08/14 04:48:13;;;;;;;36.15;21.52;;;;;;;17.19;100.00;94398.69;5005200;28;20159;-74
2022/08/14 04:51:00;;;;;;;;;;;;;;;17.24;100.00;94396.00;5016489;28;20121;-73
2022/08/14 04:53:30;;;;;;;33.92;20.92;;;;;;;17.22;100.00;94395.50;5026711;28;19933;-73
2022/08/14 04:56:03;;;;;;;32.70;19.10;;;;;;;17.19;100.00;94396.03;5013106;28;20041;-73
2022/08/14 04:58:37;;;;;;;33.65;19.13;;;;;;;17.14;100.00;94380.31;5030513;28;20036;-73
2022/08/14 05:01:06;;;;;;;43.92;20.52;;;;;;;17.25;100.00;94392.31;5006860;28;20067;-74
2022/08/14 05:03:45;;;;;;;33.40;20.67;;;;;;;17.21;100.00;94383.38;5009150;28;20120;-74
2022/08/14 05:06:12;;;;;;;32.95;19.52;;;;;;;17.34;100.00;94387.97;5022354;28;20052;-74
2022/08/14 05:08:59;;;;;;;28.25;18.00;;;;;;;17.32;100.00;94384.03;5024830;28;21054;-73
2022/08/14 05:11:26;;;;;;;35.92;19.63;;;;;;;17.37;100.00;94390.00;5024161;28;20044;-74
2022/08/14 05:13:55;;;;;;;34.90;17.83;;;;;;;17.39;100.00;94390.53;5025576;28;21014;-74
2022/08/14 05:16:42;;;;;;;30.02;17.95;;;;;;;17.49;100.00;94389.59;5007982;28;20131;-73
2022/08/14 05:19:13;;;;;;;39.17;19.60;;;;;;;17.31;100.00;94383.25;5022153;28;20045;-74
2022/08/14 05:21:58;;;;;;;33.63;19.23;;;;;;;17.42;100.00;94381.28;5020674;28;20376;-76
2022/08/14 05:24:44;;;;;;;36.05;18.92;;;;;;;17.60;100.00;94395.50;5005464;28;20072;-75
2022/08/14 05:27:18;;;;;;;41.67;21.60;;;;;;;17.61;100.00;94394.44;5025608;28;20500;-76
2022/08/14 05:29:49;;;;;;;42.00;20.27;;;;;;;17.71;100.00;94396.13;5019806;28;20065;-75
2022/08/14 05:32:16;;;;;;;38.88;19.83;;;;;;;17.73;100.00;94400.03;5005158;28;20105;-68
2022/08/14 05:34:43;;;;;;;34.00;18.67;;;;;;;17.70;100.00;94400.63;5002347;28;20057;-69
2022/08/14 05:37:13;;;;;;;42.13;21.90;;;;;;;17.67;100.00;94374.88;5020602;28;20069;-69
2022/08/14 05:39:42;;;;;;;45.25;21.00;;;;;;;17.80;100.00;94409.44;5006912;28;20043;-69
2022/08/14 05:42:09;;;;;;;52.78;24.13;;;;;;;17.80;100.00;94406.81;5005308;28;20514;-69
2022/08/14 05:44:54;;;;;;;49.75;24.42;;;;;;;17.85;100.00;94404.09;5024305;28;20505;-68
2022/08/14 05:47:23;;;;;;;56.90;22.05;;;;;;;17.83;100.00;94408.88;5025290;28;20049;-69
2022/08/14 05:49:57;;;;;;;57.65;25.27;;;;;;;17.77;100.00;94390.53;5024531;28;20553;-69
2022/08/14 05:52:24;;;;;;;49.60;24.23;;;;;;;17.86;100.00;94398.59;5026528;28;20650;-68
2022/08/14 05:55:10;;;;;;;64.63;23.95;;;;;;;17.84;100.00;94389.34;5026036;28;20117;-68
2022/08/14 05:57:54;;;;;;;58.20;25.00;;;;;;;17.74;100.00;94364.75;5023626;28;20052;-69
2022/08/14 06:00:41;;;;;;;59.58;25.00;;;;;;;18.00;100.00;94393.34;5023150;28;20045;-68
2022/08/14 06:03:15;;;;;;;60.95;24.58;;;;;;;17.98;100.00;94384.19;5025117;28;20576;-69
2022/08/14 06:05:47;;;;;;;57.03;25.98;;;;;;;18.01;100.00;94389.66;5015941;28;20149;-69
2022/08/14 06:08:23;;;;;;;49.67;23.52;;;;;;;18.02;100.00;94401.75;5020998;28;20121;-69
2022/08/14 06:11:07;;;;;;;41.50;23.02;;;;;;;18.00;100.00;94393.34;5018812;28;20493;-69
2022/08/14 06:13:39;;;;;;;42.45;23.33;;;;;;;18.11;100.00;94393.97;5016685;28;20301;-69
2022/08/14 06:16:14;;;;;;;50.42;25.08;;;;;;;18.05;100.00;94406.44;5019771;28;20050;-69
2022/08/14 06:18:48;;;;;;;42.33;22.58;;;;;;;18.10;100.00;94409.00;5020465;28;20053;-69
2022/08/14 06:21:20;;;;;;;34.38;21.50;;;;;;;18.04;100.00;94410.16;5019547;28;20515;-68
2022/08/14 06:23:48;;;;;;;36.17;22.02;;;;;;;18.04;100.00;94417.28;5024733;28;20411;-68
2022/08/14 06:26:15;;;;;;;38.22;23.23;;;;;;;17.94;100.00;94415.59;5001496;28;20049;-69
2022/08/14 06:28:49;;;;;;;33.83;21.38;;;;;;;17.90;100.00;94419.88;5019831;28;20046;-69
2022/08/14 06:31:18;;;;;;;45.85;23.08;;;;;;;17.91;100.00;94422.19;5013875;28;20042;-68
2022/08/14 06:33:46;;;;;;;42.35;23.45;;;;;;;17.83;100.00;94414.16;5020003;28;20418;-69
2022/08/14 06:36:34;;;;;;;46.25;24.77;;;;;;;17.81;100.00;94416.25;5020574;28;20041;-69
2022/08/14 06:39:01;;;;;;;46.95;25.35;;;;;;;17.80;100.00;94419.97;5022235;28;20199;-69
2022/08/14 06:41:27;;;;;;;50.80;25.25;;;;;;;17.51;100.00;94389.31;5017573;28;20033;-69
2022/08/14 06:44:14;;;;;;;44.75;23.75;;;;;;;17.74;100.00;94433.22;5004737;28;20040;-68
2022/08/14 06:46:41;;;;;;;48.35;26.67;;;;;;;17.76;100.00;94423.19;5010001;28;20053;-69
2022/08/14 06:49:15;;;;;;;40.05;24.42;;;;;;;17.74;100.00;94420.06;5018820;28;20038;-69
2022/08/14 06:51:45;;;;;;;41.40;24.15;;;;;;;17.86;100.00;94429.41;5002251;28;20075;-69
2022/08/14 06:54:15;;;;;;;49.22;25.65;;;;;;;17.91;100.00;94426.69;5004427;28;20053;-69
2022/08/14 06:56:42;;;;;;;41.10;25.58;;;;;;;17.99;100.00;94427.88;5002792;28;20071;-69
2022/08/14 06:59:13;;;;;;;40.83;24.02;;;;;;;17.91;100.00;94421.41;5019968;28;20038;-68
2022/08/14 07:07:16;;;;;;;31.50;22.20;;;;;;;17.96;100.00;94432.66;5021533;28;20076;-68
2022/08/14 07:09:43;;;;;;;37.20;23.52;;;;;;;17.94;100.00;94431.41;5023512;28;20050;-68
2022/08/14 07:12:16;;;;;;;33.80;22.83;;;;;;;18.00;100.00;94435.50;5025790;28;20506;-68
2022/08/14 07:15:05;;;;;;;33.97;22.35;;;;;;;18.08;100.00;94439.38;5022740;28;20472;-70
2022/08/14 07:17:32;;;;;;;31.35;21.05;;;;;;;18.02;100.00;94417.56;5024778;28;20052;-70
2022/08/14 07:20:03;;;;;;;30.45;20.10;;;;;;;18.20;100.00;94438.91;5023585;28;20140;-69
2022/08/14 07:22:33;;;;;;;32.25;19.38;;;;;;;18.20;100.00;94433.63;5020237;28;20095;-67
2022/08/14 07:25:20;;;;;;;27.35;17.67;;;;;;;18.26;100.00;94432.50;5017615;28;20041;-68
2022/08/14 07:27:46;;;;;;;27.35;17.95;;;;;;;18.31;100.00;94432.38;5025855;28;20461;-68
2022/08/14 07:30:13;;;;;;;27.35;20.25;;;;;;;18.32;100.00;94429.47;5025609;28;20037;-68
2022/08/14 07:33:01;;;;;;;38.60;23.92;;;;;;;18.34;100.00;94429.19;5021347;28;20057;-69
2022/08/14 07:35:28;;;;;;;44.25;26.50;;;;;;;18.41;100.00;94424.31;5005802;28;20049;-70
2022/08/14 07:38:17;;;;;;;24.58;18.30;;;;;;;18.40;100.00;94422.75;5005839;28;20144;-69
2022/08/14 07:40:46;;;;;;;40.40;23.33;;;;;;;18.29;100.00;94392.34;5006729;28;20081;-68
2022/08/14 07:43:20;;;;;;;31.05;21.00;;;;;;;18.66;100.00;94427.59;5017363;28;20037;-70
2022/08/14 07:45:47;;;;;;;31.33;19.88;;;;;;;18.69;100.00;94424.34;5023150;28;20053;-69
2022/08/14 07:48:16;;;;;;;23.58;15.10;;;;;;;18.60;100.00;94416.34;4988996;28;20042;-68
2022/08/14 07:50:50;;;;;;;24.90;17.27;;;;;;;18.64;100.00;94427.09;5025873;28;20045;-77
2022/08/14 07:53:18;;;;;;;23.88;15.75;;;;;;;18.76;100.00;94424.75;5025693;28;20457;-78
2022/08/14 07:55:45;;;;;;;25.55;16.40;;;;;;;18.85;100.00;94428.31;5024208;28;20045;-69
2022/08/14 07:58:32;;;;;;;24.92;16.35;;;;;;;18.87;100.00;94426.16;5017298;28;20041;-73
2022/08/14 08:01:06;;;;;;;22.98;14.88;;;;;;;18.95;100.00;94437.13;5013210;28;20100;-74
2022/08/14 08:03:36;;;;;;;19.77;13.40;;;;;;;19.02;100.00;94437.50;5006464;28;20522;-72
2022/08/14 08:06:04;;;;;;;20.10;14.55;;;;;;;19.09;100.00;94435.25;5012493;28;20617;-68
2022/08/14 08:08:45;;;;;;;21.27;15.82;;;;;;;19.19;100.00;94437.69;5016298;28;20033;-68
2022/08/14 08:11:32;;;;;;;25.58;18.67;;;;;;;19.42;100.00;94435.91;5013362;28;20119;-68
2022/08/14 08:14:05;;;;;;;25.13;18.02;;;;;;;19.55;100.00;94431.66;5017373;28;20041;-67
2022/08/14 08:16:44;;;;;;;16.92;13.80;;;;;;;19.57;100.00;94441.94;5008873;28;20049;-67
2022/08/14 08:19:11;;;;;;;19.73;14.40;;;;;;;19.48;100.00;94433.94;5021813;28;20037;-67
2022/08/14 08:21:40;;;;;;;19.05;14.93;;;;;;;19.36;100.00;94420.47;5024724;28;20072;-67
2022/08/14 08:24:10;;;;;;;23.42;16.60;;;;;;;19.46;100.00;94436.91;5022861;28;20041;-68
2022/08/14 08:26:40;;;;;;;24.83;17.55;;;;;;;19.51;100.00;94428.06;5019959;28;20047;-68
2022/08/14 08:29:08;;;;;;;23.08;15.95;;;;;;;19.41;100.00;94418.50;5003433;28;20069;-70
2022/08/14 08:31:49;;;;;;;22.42;16.65;;;;;;;19.49;100.00;94419.66;5021385;28;20041;-69
2022/08/14 08:34:19;;;;;;;25.48;16.50;;;;;;;19.57;100.00;94421.63;5019029;28;20057;-69
2022/08/14 08:36:50;;;;;;;26.40;17.35;;;;;;;19.70;100.00;94420.00;5017701;28;20131;-69
2022/08/14 08:39:18;;;;;;;22.13;15.82;;;;;;;19.83;100.00;94419.19;5002827;28;20131;-69
2022/08/14 08:41:48;;;;;;;29.85;16.00;;;;;;;19.92;100.00;94411.34;5000803;28;20045;-69
2022/08/14 08:44:19;;;;;;;23.92;15.73;;;;;;;19.92;100.00;94406.06;5020441;28;20041;-69
2022/08/14 08:47:04;;;;;;;12.00;8.63;;;;;;;19.86;100.00;94412.53;5021540;28;20046;-69
2022/08/14 08:49:42;;;;;;;10.90;5.80;;;;;;;19.55;100.00;94415.06;5021019;28;20053;-68
2022/08/14 08:52:27;;;;;;;8.77;6.95;;;;;;;19.49;100.00;94414.38;5021338;28;20542;-69
2022/08/14 08:54:59;;;;;;;9.85;7.28;;;;;;;19.42;100.00;94409.50;5024641;28;20040;-69
2022/08/14 08:57:34;;;;;;;11.10;7.05;;;;;;;19.33;100.00;94421.06;5025348;28;20102;-69
2022/08/14 09:00:12;;;;;;;8.52;6.80;;;;;;;19.17;100.00;94402.88;5023579;28;20533;-69
2022/08/14 09:02:58;;;;;;;11.73;6.93;;;;;;;19.19;100.00;94405.22;5018017;28;20050;-69
2022/08/14 09:05:25;;;;;;;6.10;4.97;;;;;;;19.27;100.00;94402.69;5020324;28;20778;-69
2022/08/14 09:07:52;;;;;;;7.40;5.80;;;;;;;19.49;100.00;94403.81;5023122;28;20041;-68
2022/08/14 09:10:22;;;;;;;6.72;5.35;;;;;;;19.59;100.00;94403.59;5022283;28;20068;-69
2022/08/14 09:12:54;;;;;;;7.22;4.22;;;;;;;19.68;100.00;94401.03;5018765;28;20945;-69
2022/08/14 09:15:22;;;;;;;7.20;5.63;;;;;;;19.60;100.00;94399.88;5022878;28;20145;-69
2022/08/14 09:17:51;;;;;;;5.07;4.18;;;;;;;19.73;100.00;94403.56;5018458;28;20076;-70
2022/08/14 09:20:20;;;;;;;14.88;4.25;;;;;;;19.78;100.00;94389.47;5020699;28;20064;-69
2022/08/14 09:22:57;;;;;;;5.57;4.15;;;;;;;19.71;100.00;94399.66;5005752;28;20050;-69
2022/08/14 09:25:24;;;;;;;8.40;4.00;;;;;;;19.69;100.00;94397.31;5019782;28;20054;-70
2022/08/14 09:28:13;;;;;;;4.68;3.80;;;;;;;19.85;100.00;94400.41;5004450;28;20062;-71
2022/08/14 09:30:43;;;;;;;8.57;3.63;;;;;;;19.87;100.00;94392.97;5021484;28;20034;-69
2022/08/14 09:33:17;;;;;;;4.40;3.85;;;;;;;19.97;100.00;94395.38;5020843;28;20357;-69
2022/08/14 09:36:27;;;;;;;9.13;4.70;;;;;;;20.13;100.00;94405.56;5022145;28;20145;-69
2022/08/14 09:39:33;;;;;;;6.93;4.03;;;;;;;20.30;100.00;94400.41;4998321;28;20041;-69
2022/08/14 09:42:21;;;;;;;7.18;4.53;;;;;;;20.40;100.00;94407.28;5019787;28;20376;-69
2022/08/14 09:45:11;;;;;;;3.90;3.28;;;;;;;20.56;100.00;94407.69;5019646;28;20049;-69
2022/08/14 09:47:44;;;;;;;10.00;4.50;;;;;;;20.72;100.00;94416.03;4991703;28;20514;-69
2022/08/14 09:50:31;;;;;;;8.80;4.95;;;;;;;21.05;100.00;94408.53;5005728;28;20518;-69
2022/08/14 09:53:03;;;;;;;6.20;4.57;;;;;;;21.40;100.00;94411.25;5014845;28;20057;-69
2022/08/14 09:55:34;;;;;;;4.53;3.90;;;;;;;21.90;100.00;94410.84;5017512;28;20049;-69
2022/08/14 09:58:14;;;;;;;4.57;4.07;;;;;;;22.28;97.63;94404.16;5005642;28;20065;-68
2022/08/14 10:00:59;;;;;;;5.05;3.92;;;;;;;22.42;92.44;94411.91;5004158;28;20457;-68
2022/08/14 10:03:32;;;;;;;4.07;3.55;;;;;;;22.39;92.26;94407.25;5021466;28;20526;-69
2022/08/14 10:06:16;;;;;;;6.15;4.15;;;;;;;22.76;92.73;94402.28;5023961;28;20057;-69
2022/08/14 10:08:46;;;;;;;8.52;4.57;;;;;;;23.05;91.89;94405.00;5025108;28;20052;-70
2022/08/14 10:11:26;;;;;;;4.25;3.53;;;;;;;22.87;87.85;94398.19;5025042;28;20506;-69
2022/08/14 10:14:25;;;;;;;4.18;3.65;;;;;;;23.04;86.57;94398.13;5004355;28;20042;-69
2022/08/14 10:17:03;;;;;;;5.63;4.20;;;;;;;23.02;87.15;94368.44;5007478;28;21750;-69
2022/08/14 10:19:33;;;;;;;7.55;3.55;;;;;;;23.44;85.89;94394.31;5025770;28;20448;-69
2022/08/14 10:22:09;;;;;;;4.50;3.42;;;;;;;23.38;82.22;94399.03;5023603;28;20076;-69
2022/08/14 10:24:57;;;;;;;4.72;3.45;;;;;;;23.35;83.49;94397.00;5022234;28;20122;-70
2022/08/14 10:27:26;;;;;;;5.15;3.40;;;;;;;23.41;81.22;94390.44;5021293;28;20042;-69
2022/08/14 10:29:58;;;;;;;16.38;4.05;;;;;;;23.34;80.64;94390.16;5012400;28;20590;-67
2022/08/14 10:32:26;;;;;;;4.30;3.60;;;;;;;23.32;80.52;94381.75;4987560;28;20052;-67
2022/08/14 10:35:15;;;;;;;5.93;4.55;;;;;;;23.26;79.11;94377.69;5009854;28;20532;-68
2022/08/14 10:37:48;;;;;;;4.05;3.10;;;;;;;23.24;79.16;94369.28;5020459;28;20585;-67
2022/08/14 10:40:32;;;;;;;4.55;3.42;;;;;;;23.37;77.55;94372.78;5021515;28;20128;-68
2022/08/14 10:43:19;;;;;;;4.20;3.08;;;;;;;23.55;78.90;94376.09;4986943;28;20484;-68
2022/08/14 10:45:55;;;;;;;4.30;3.42;;;;;;;23.81;77.24;94366.06;5024994;28;20404;-69
2022/08/14 10:48:55;;;;;;;5.90;3.28;;;;;;;23.66;75.27;94361.34;5020908;28;20038;-68
2022/08/14 10:51:27;;;;;;;5.82;3.33;;;;;;;23.67;76.32;94360.22;5024758;28;20041;-68
2022/08/14 10:54:06;;;;;;;3.75;3.13;;;;;;;23.87;74.42;94355.25;5025072;28;20033;-68
2022/08/14 10:56:54;;;;;;;4.65;3.35;;;;;;;23.82;73.51;94351.69;5022243;28;20100;-70
2022/08/14 10:59:22;;;;;;;3.88;3.33;;;;;;;23.91;73.08;94353.47;5024555;28;20034;-69
2022/08/14 11:02:02;;;;;;;3.78;3.10;;;;;;;24.01;73.09;94343.22;5022228;28;20136;-69
2022/08/14 11:04:30;;;;;;;5.63;2.70;;;;;;;24.29;71.54;94341.84;5021268;28;20037;-70
2022/08/14 11:06:59;;;;;;;4.85;4.25;;;;;;;24.40;69.81;94337.66;5021535;28;20048;-70
2022/08/14 11:09:27;;;;;;;5.28;3.88;;;;;;;24.31;68.02;94350.25;5023850;28;20592;-70
2022/08/14 11:11:58;;;;;;;5.35;4.35;;;;;;;24.18;68.35;94342.28;5020908;28;20049;-70
2022/08/14 11:14:58;;;;;;;6.43;5.32;;;;;;;24.36;69.29;94347.41;5019598;28;20637;-70
2022/08/14 11:17:32;;;;;;;6.85;4.72;;;;;;;24.71;69.58;94353.13;5007466;28;20053;-69
2022/08/14 11:20:02;;;;;;;5.20;4.43;;;;;;;25.13;67.71;94352.13;5004757;28;20132;-70
2022/08/14 11:22:30;;;;;;;5.20;4.50;;;;;;;25.36;67.65;94347.13;5021538;28;20041;-70
2022/08/14 11:25:19;;;;;;;4.97;4.15;;;;;;;25.34;65.60;94336.78;5022475;28;20060;-70
2022/08/14 11:27:47;;;;;;;5.80;4.82;;;;;;;25.78;66.02;94343.34;5022344;28;20461;-70
2022/08/14 11:30:18;;;;;;;7.43;5.65;;;;;;;26.00;62.92;94334.84;5019206;28;20033;-70
2022/08/14 11:33:06;;;;;;;7.28;4.75;;;;;;;25.70;62.12;94343.16;5021198;28;20837;-70
2022/08/14 11:35:36;;;;;;;8.10;4.18;;;;;;;25.98;62.72;94331.72;5020064;28;20045;-70
2022/08/14 11:38:14;;;;;;;5.03;4.22;;;;;;;25.63;62.90;94326.94;5018948;28;20708;-69
2022/08/14 11:40:44;;;;;;;8.23;5.32;;;;;;;25.46;62.80;94337.88;5020048;28;20072;-70
2022/08/14 11:43:15;;;;;;;5.95;5.03;;;;;;;25.58;62.62;94329.84;4990158;28;20099;-70
2022/08/14 11:45:46;;;;;;;6.68;5.50;;;;;;;25.82;60.29;94344.19;5004968;28;20041;-69
2022/08/14 11:48:21;;;;;;;6.90;5.32;;;;;;;25.95;60.49;94340.41;5020366;28;20509;-71
2022/08/14 11:51:22;;;;;;;10.88;7.50;;;;;;;25.80;61.15;94341.09;5021437;28;20507;-70
2022/08/14 11:53:53;;;;;;;12.50;6.80;;;;;;;25.61;61.18;94342.50;5001849;28;20123;-70
2022/08/14 11:56:20;;;;;;;8.07;6.18;;;;;;;25.57;60.93;94344.31;5018641;28;20046;-70
2022/08/14 11:58:56;;;;;;;5.85;5.15;;;;;;;25.49;61.26;94326.53;4999512;28;20048;-71
2022/08/14 12:01:27;;;;;;;7.32;5.90;;;;;;;25.60;60.52;94332.94;4998934;28;20045;-71
2022/08/14 12:03:57;;;;;;;9.93;6.03;;;;;;;25.82;60.88;94333.53;5020144;28;20073;-71
2022/08/14 12:06:27;;;;;;;11.63;5.30;;;;;;;25.72;61.16;94330.25;4999911;28;20054;-70
2022/08/14 12:09:06;;;;;;;8.55;4.85;;;;;;;25.41;62.29;94340.78;4929525;28;20049;-71
2022/08/14 12:11:39;;;;;;;;;;;;;;;25.09;64.36;94330.69;4930218;28;20044;-71